sensor_id;sensor_type;location;lat;lon;timestamp;P1;durP1;ratioP1;P2;durP2;ratioP2
56045;SDS011;41913;51.030;3.706;2023-09-18T00:02:13;6.75;;;4.85;;
56045;SDS011;41913;51.030;3.706;2023-09-18T00:04:39;4.38;;;3.97;;
56045;SDS011;41913;51.030;3.706;2023-09-18T00:07:05;5.35;;;4.32;;
56045;SDS011;41913;51.030;3.706;2023-09-18T00:09:30;5.03;;;4.40;;
56045;SDS011;41913;51.030;3.706;2023-09-18T00:11:56;4.60;;;4.20;;
56045;SDS011;41913;51.030;3.706;2023-09-18T00:14:22;4.50;;;3.70;;
56045;SDS011;41913;51.030;3.706;2023-09-18T00:16:48;7.70;;;4.28;;
56045;SDS011;41913;51.030;3.706;2023-09-18T00:19:14;4.43;;;4.10;;
56045;SDS011;41913;51.030;3.706;2023-09-18T00:21:39;5.82;;;4.10;;
56045;SDS011;41913;51.030;3.706;2023-09-18T00:24:05;4.53;;;4.13;;
56045;SDS011;41913;51.030;3.706;2023-09-18T00:26:33;4.40;;;4.10;;
56045;SDS011;41913;51.030;3.706;2023-09-18T00:28:59;4.22;;;3.90;;
56045;SDS011;41913;51.030;3.706;2023-09-18T00:31:24;6.40;;;4.28;;
56045;SDS011;41913;51.030;3.706;2023-09-18T00:33:50;4.43;;;3.60;;
56045;SDS011;41913;51.030;3.706;2023-09-18T00:36:16;4.00;;;3.70;;
56045;SDS011;41913;51.030;3.706;2023-09-18T00:38:41;4.85;;;4.47;;
56045;SDS011;41913;51.030;3.706;2023-09-18T00:41:07;4.75;;;4.35;;
56045;SDS011;41913;51.030;3.706;2023-09-18T00:43:33;4.13;;;3.72;;
56045;SDS011;41913;51.030;3.706;2023-09-18T00:45:59;4.28;;;3.72;;
56045;SDS011;41913;51.030;3.706;2023-09-18T00:48:25;4.95;;;4.65;;
56045;SDS011;41913;51.030;3.706;2023-09-18T00:50:53;3.75;;;3.47;;
56045;SDS011;41913;51.030;3.706;2023-09-18T00:53:20;4.13;;;3.92;;
56045;SDS011;41913;51.030;3.706;2023-09-18T00:55:47;4.47;;;4.18;;
56045;SDS011;41913;51.030;3.706;2023-09-18T00:58:14;5.25;;;4.28;;
56045;SDS011;41913;51.030;3.706;2023-09-18T01:00:40;4.50;;;4.18;;
56045;SDS011;41913;51.030;3.706;2023-09-18T01:03:06;3.13;;;2.88;;
56045;SDS011;41913;51.030;3.706;2023-09-18T01:05:33;3.42;;;3.22;;
56045;SDS011;41913;51.030;3.706;2023-09-18T01:07:58;3.40;;;3.20;;
56045;SDS011;41913;51.030;3.706;2023-09-18T01:10:24;2.67;;;2.58;;
56045;SDS011;41913;51.030;3.706;2023-09-18T01:12:55;2.90;;;2.70;;
56045;SDS011;41913;51.030;3.706;2023-09-18T01:15:35;2.38;;;2.28;;
56045;SDS011;41913;51.030;3.706;2023-09-18T01:18:08;4.03;;;3.08;;
56045;SDS011;41913;51.030;3.706;2023-09-18T01:20:35;4.07;;;3.67;;
56045;SDS011;41913;51.030;3.706;2023-09-18T01:23:01;3.47;;;3.15;;
56045;SDS011;41913;51.030;3.706;2023-09-18T01:25:27;4.03;;;3.67;;
56045;SDS011;41913;51.030;3.706;2023-09-18T01:27:52;4.00;;;3.78;;
56045;SDS011;41913;51.030;3.706;2023-09-18T01:30:18;3.63;;;3.42;;
56045;SDS011;41913;51.030;3.706;2023-09-18T01:32:44;3.50;;;3.30;;
56045;SDS011;41913;51.030;3.706;2023-09-18T01:35:12;3.30;;;3.10;;
56045;SDS011;41913;51.030;3.706;2023-09-18T01:37:38;3.95;;;3.65;;
56045;SDS011;41913;51.030;3.706;2023-09-18T01:40:05;3.80;;;3.50;;
56045;SDS011;41913;51.030;3.706;2023-09-18T01:42:34;3.83;;;3.42;;
56045;SDS011;41913;51.030;3.706;2023-09-18T01:45:00;4.03;;;3.78;;
56045;SDS011;41913;51.030;3.706;2023-09-18T01:47:26;4.90;;;3.58;;
56045;SDS011;41913;51.030;3.706;2023-09-18T01:49:52;3.08;;;2.97;;
56045;SDS011;41913;51.030;3.706;2023-09-18T01:52:18;3.10;;;2.92;;
56045;SDS011;41913;51.030;3.706;2023-09-18T01:54:43;3.33;;;3.13;;
56045;SDS011;41913;51.030;3.706;2023-09-18T01:57:09;3.47;;;3.28;;
56045;SDS011;41913;51.030;3.706;2023-09-18T01:59:37;3.40;;;3.20;;
56045;SDS011;41913;51.030;3.706;2023-09-18T02:02:02;3.53;;;3.22;;
56045;SDS011;41913;51.030;3.706;2023-09-18T02:04:32;3.97;;;3.67;;
56045;SDS011;41913;51.030;3.706;2023-09-18T02:06:57;6.95;;;3.33;;
56045;SDS011;41913;51.030;3.706;2023-09-18T02:09:23;3.65;;;3.13;;
56045;SDS011;41913;51.030;3.706;2023-09-18T02:11:49;4.03;;;3.60;;
56045;SDS011;41913;51.030;3.706;2023-09-18T02:14:15;2.85;;;2.70;;
56045;SDS011;41913;51.030;3.706;2023-09-18T02:16:41;2.92;;;2.83;;
56045;SDS011;41913;51.030;3.706;2023-09-18T02:19:12;4.22;;;3.83;;
56045;SDS011;41913;51.030;3.706;2023-09-18T02:21:39;4.78;;;3.03;;
56045;SDS011;41913;51.030;3.706;2023-09-18T02:24:05;4.47;;;3.33;;
56045;SDS011;41913;51.030;3.706;2023-09-18T02:26:32;3.33;;;2.90;;
56045;SDS011;41913;51.030;3.706;2023-09-18T02:29:02;3.30;;;3.10;;
56045;SDS011;41913;51.030;3.706;2023-09-18T02:31:30;3.20;;;2.90;;
56045;SDS011;41913;51.030;3.706;2023-09-18T02:33:57;3.30;;;3.20;;
56045;SDS011;41913;51.030;3.706;2023-09-18T02:36:23;4.88;;;3.08;;
56045;SDS011;41913;51.030;3.706;2023-09-18T02:38:49;3.45;;;3.22;;
56045;SDS011;41913;51.030;3.706;2023-09-18T02:41:15;3.05;;;2.85;;
56045;SDS011;41913;51.030;3.706;2023-09-18T02:43:41;3.47;;;2.92;;
56045;SDS011;41913;51.030;3.706;2023-09-18T02:46:08;2.75;;;2.65;;
56045;SDS011;41913;51.030;3.706;2023-09-18T02:48:34;2.90;;;2.70;;
56045;SDS011;41913;51.030;3.706;2023-09-18T02:51:00;2.60;;;2.50;;
56045;SDS011;41913;51.030;3.706;2023-09-18T02:53:27;3.42;;;3.20;;
56045;SDS011;41913;51.030;3.706;2023-09-18T02:55:54;2.83;;;2.72;;
56045;SDS011;41913;51.030;3.706;2023-09-18T02:58:21;8.48;;;3.55;;
56045;SDS011;41913;51.030;3.706;2023-09-18T03:00:50;3.15;;;2.95;;
56045;SDS011;41913;51.030;3.706;2023-09-18T03:03:17;3.10;;;2.92;;
56045;SDS011;41913;51.030;3.706;2023-09-18T03:05:43;2.90;;;2.67;;
56045;SDS011;41913;51.030;3.706;2023-09-18T03:08:10;4.57;;;3.00;;
56045;SDS011;41913;51.030;3.706;2023-09-18T03:10:37;3.10;;;2.92;;
56045;SDS011;41913;51.030;3.706;2023-09-18T03:13:11;3.67;;;3.47;;
56045;SDS011;41913;51.030;3.706;2023-09-18T03:15:38;3.13;;;2.83;;
56045;SDS011;41913;51.030;3.706;2023-09-18T03:18:04;2.83;;;2.72;;
56045;SDS011;41913;51.030;3.706;2023-09-18T03:20:32;2.65;;;2.45;;
56045;SDS011;41913;51.030;3.706;2023-09-18T03:22:58;3.17;;;2.97;;
56045;SDS011;41913;51.030;3.706;2023-09-18T03:25:26;2.90;;;2.70;;
56045;SDS011;41913;51.030;3.706;2023-09-18T03:27:52;3.40;;;3.10;;
56045;SDS011;41913;51.030;3.706;2023-09-18T03:30:19;2.80;;;2.70;;
56045;SDS011;41913;51.030;3.706;2023-09-18T03:32:46;3.58;;;3.00;;
56045;SDS011;41913;51.030;3.706;2023-09-18T03:35:13;3.67;;;3.22;;
56045;SDS011;41913;51.030;3.706;2023-09-18T03:37:48;2.65;;;2.55;;
56045;SDS011;41913;51.030;3.706;2023-09-18T03:40:16;5.15;;;3.35;;
56045;SDS011;41913;51.030;3.706;2023-09-18T03:42:43;2.50;;;2.38;;
56045;SDS011;41913;51.030;3.706;2023-09-18T03:45:10;2.50;;;2.40;;
56045;SDS011;41913;51.030;3.706;2023-09-18T03:47:36;4.25;;;3.08;;
56045;SDS011;41913;51.030;3.706;2023-09-18T03:50:04;2.78;;;2.60;;
56045;SDS011;41913;51.030;3.706;2023-09-18T03:52:34;3.80;;;3.08;;
56045;SDS011;41913;51.030;3.706;2023-09-18T03:55:00;2.58;;;2.30;;
56045;SDS011;41913;51.030;3.706;2023-09-18T03:57:26;2.67;;;2.58;;
56045;SDS011;41913;51.030;3.706;2023-09-18T03:59:51;3.60;;;3.30;;
56045;SDS011;41913;51.030;3.706;2023-09-18T04:02:17;2.50;;;2.38;;
56045;SDS011;41913;51.030;3.706;2023-09-18T04:04:43;3.80;;;2.22;;
56045;SDS011;41913;51.030;3.706;2023-09-18T04:07:08;2.72;;;2.20;;
56045;SDS011;41913;51.030;3.706;2023-09-18T04:09:35;2.90;;;2.70;;
56045;SDS011;41913;51.030;3.706;2023-09-18T04:12:03;4.25;;;3.22;;
56045;SDS011;41913;51.030;3.706;2023-09-18T04:14:32;3.28;;;2.53;;
56045;SDS011;41913;51.030;3.706;2023-09-18T04:16:58;3.13;;;2.92;;
56045;SDS011;41913;51.030;3.706;2023-09-18T04:19:25;2.65;;;2.05;;
56045;SDS011;41913;51.030;3.706;2023-09-18T04:21:51;3.00;;;2.80;;
56045;SDS011;41913;51.030;3.706;2023-09-18T04:24:17;3.55;;;2.70;;
56045;SDS011;41913;51.030;3.706;2023-09-18T04:26:43;2.72;;;2.53;;
56045;SDS011;41913;51.030;3.706;2023-09-18T04:29:09;3.10;;;1.90;;
56045;SDS011;41913;51.030;3.706;2023-09-18T04:31:34;2.83;;;2.25;;
56045;SDS011;41913;51.030;3.706;2023-09-18T04:34:00;3.10;;;2.08;;
56045;SDS011;41913;51.030;3.706;2023-09-18T04:36:26;3.55;;;2.83;;
56045;SDS011;41913;51.030;3.706;2023-09-18T04:38:52;2.80;;;2.03;;
56045;SDS011;41913;51.030;3.706;2023-09-18T04:41:17;3.55;;;2.13;;
56045;SDS011;41913;51.030;3.706;2023-09-18T04:43:43;3.60;;;2.70;;
56045;SDS011;41913;51.030;3.706;2023-09-18T04:46:11;2.47;;;2.05;;
56045;SDS011;41913;51.030;3.706;2023-09-18T04:48:38;2.33;;;2.22;;
56045;SDS011;41913;51.030;3.706;2023-09-18T04:51:03;2.38;;;2.13;;
56045;SDS011;41913;51.030;3.706;2023-09-18T04:53:30;2.15;;;1.95;;
56045;SDS011;41913;51.030;3.706;2023-09-18T04:55:57;2.15;;;2.03;;
56045;SDS011;41913;51.030;3.706;2023-09-18T04:58:23;2.70;;;1.52;;
56045;SDS011;41913;51.030;3.706;2023-09-18T05:00:55;1.80;;;1.58;;
56045;SDS011;41913;51.030;3.706;2023-09-18T05:03:22;7.53;;;1.90;;
56045;SDS011;41913;51.030;3.706;2023-09-18T05:05:48;1.48;;;1.48;;
56045;SDS011;41913;51.030;3.706;2023-09-18T05:08:14;1.92;;;1.80;;
56045;SDS011;41913;51.030;3.706;2023-09-18T05:10:41;3.33;;;1.80;;
56045;SDS011;41913;51.030;3.706;2023-09-18T05:13:07;1.60;;;1.50;;
56045;SDS011;41913;51.030;3.706;2023-09-18T05:15:33;1.63;;;1.52;;
56045;SDS011;41913;51.030;3.706;2023-09-18T05:17:59;2.15;;;1.95;;
56045;SDS011;41913;51.030;3.706;2023-09-18T05:20:26;1.65;;;1.55;;
56045;SDS011;41913;51.030;3.706;2023-09-18T05:22:53;16.83;;;2.03;;
56045;SDS011;41913;51.030;3.706;2023-09-18T05:25:19;4.25;;;1.70;;
56045;SDS011;41913;51.030;3.706;2023-09-18T05:27:53;1.73;;;1.63;;
56045;SDS011;41913;51.030;3.706;2023-09-18T05:30:29;1.65;;;1.55;;
56045;SDS011;41913;51.030;3.706;2023-09-18T05:32:58;2.95;;;1.75;;
56045;SDS011;41913;51.030;3.706;2023-09-18T05:35:34;5.15;;;2.03;;
56045;SDS011;41913;51.030;3.706;2023-09-18T05:38:02;14.27;;;1.58;;
56045;SDS011;41913;51.030;3.706;2023-09-18T05:40:28;7.95;;;1.60;;
56045;SDS011;41913;51.030;3.706;2023-09-18T05:42:55;4.53;;;1.63;;
56045;SDS011;41913;51.030;3.706;2023-09-18T05:45:21;2.40;;;1.42;;
56045;SDS011;41913;51.030;3.706;2023-09-18T05:47:48;4.22;;;1.60;;
56045;SDS011;41913;51.030;3.706;2023-09-18T05:50:14;3.75;;;1.60;;
56045;SDS011;41913;51.030;3.706;2023-09-18T05:52:45;2.88;;;1.70;;
56045;SDS011;41913;51.030;3.706;2023-09-18T05:55:12;4.47;;;1.63;;
56045;SDS011;41913;51.030;3.706;2023-09-18T05:57:39;2.70;;;1.52;;
56045;SDS011;41913;51.030;3.706;2023-09-18T06:00:05;2.15;;;1.63;;
56045;SDS011;41913;51.030;3.706;2023-09-18T06:02:31;1.40;;;1.30;;
56045;SDS011;41913;51.030;3.706;2023-09-18T06:04:58;1.35;;;1.35;;
56045;SDS011;41913;51.030;3.706;2023-09-18T06:07:27;1.73;;;1.40;;
56045;SDS011;41913;51.030;3.706;2023-09-18T06:09:53;4.55;;;1.70;;
56045;SDS011;41913;51.030;3.706;2023-09-18T06:12:19;2.95;;;1.83;;
56045;SDS011;41913;51.030;3.706;2023-09-18T06:14:46;4.38;;;1.48;;
56045;SDS011;41913;51.030;3.706;2023-09-18T06:17:13;1.30;;;1.30;;
56045;SDS011;41913;51.030;3.706;2023-09-18T06:19:40;6.28;;;1.45;;
56045;SDS011;41913;51.030;3.706;2023-09-18T06:22:06;3.25;;;1.85;;
56045;SDS011;41913;51.030;3.706;2023-09-18T06:24:34;8.40;;;2.03;;
56045;SDS011;41913;51.030;3.706;2023-09-18T06:27:00;3.25;;;1.50;;
56045;SDS011;41913;51.030;3.706;2023-09-18T06:29:26;2.85;;;1.58;;
56045;SDS011;41913;51.030;3.706;2023-09-18T06:31:51;4.47;;;1.70;;
56045;SDS011;41913;51.030;3.706;2023-09-18T06:34:17;2.80;;;1.13;;
56045;SDS011;41913;51.030;3.706;2023-09-18T06:36:43;3.75;;;1.50;;
56045;SDS011;41913;51.030;3.706;2023-09-18T06:39:09;10.43;;;1.55;;
56045;SDS011;41913;51.030;3.706;2023-09-18T06:41:34;2.75;;;1.52;;
56045;SDS011;41913;51.030;3.706;2023-09-18T06:44:01;1.35;;;1.20;;
56045;SDS011;41913;51.030;3.706;2023-09-18T06:46:27;3.08;;;1.30;;
56045;SDS011;41913;51.030;3.706;2023-09-18T06:48:53;6.30;;;1.52;;
56045;SDS011;41913;51.030;3.706;2023-09-18T06:51:19;1.20;;;1.20;;
56045;SDS011;41913;51.030;3.706;2023-09-18T06:53:46;2.80;;;1.05;;
56045;SDS011;41913;51.030;3.706;2023-09-18T06:56:11;2.33;;;1.40;;
56045;SDS011;41913;51.030;3.706;2023-09-18T06:58:37;3.67;;;1.48;;
56045;SDS011;41913;51.030;3.706;2023-09-18T07:01:03;10.13;;;1.77;;
56045;SDS011;41913;51.030;3.706;2023-09-18T07:03:32;3.55;;;1.20;;
56045;SDS011;41913;51.030;3.706;2023-09-18T07:05:59;1.13;;;1.10;;
56045;SDS011;41913;51.030;3.706;2023-09-18T07:08:25;1.95;;;1.55;;
56045;SDS011;41913;51.030;3.706;2023-09-18T07:10:51;2.78;;;1.55;;
56045;SDS011;41913;51.030;3.706;2023-09-18T07:13:17;2.90;;;1.27;;
56045;SDS011;41913;51.030;3.706;2023-09-18T07:15:44;2.85;;;2.08;;
56045;SDS011;41913;51.030;3.706;2023-09-18T07:18:10;5.10;;;2.25;;
56045;SDS011;41913;51.030;3.706;2023-09-18T07:20:40;4.80;;;1.60;;
56045;SDS011;41913;51.030;3.706;2023-09-18T07:23:06;1.70;;;1.60;;
56045;SDS011;41913;51.030;3.706;2023-09-18T07:25:32;8.32;;;2.20;;
56045;SDS011;41913;51.030;3.706;2023-09-18T07:27:58;7.90;;;1.70;;
56045;SDS011;41913;51.030;3.706;2023-09-18T07:30:24;4.78;;;2.28;;
56045;SDS011;41913;51.030;3.706;2023-09-18T07:32:52;6.75;;;1.30;;
56045;SDS011;41913;51.030;3.706;2023-09-18T07:35:23;8.35;;;2.42;;
56045;SDS011;41913;51.030;3.706;2023-09-18T07:37:53;11.15;;;2.03;;
56045;SDS011;41913;51.030;3.706;2023-09-18T07:40:20;5.05;;;1.95;;
56045;SDS011;41913;51.030;3.706;2023-09-18T07:42:46;3.97;;;1.90;;
56045;SDS011;41913;51.030;3.706;2023-09-18T07:45:12;4.85;;;2.45;;
56045;SDS011;41913;51.030;3.706;2023-09-18T07:47:38;7.30;;;2.50;;
56045;SDS011;41913;51.030;3.706;2023-09-18T07:50:04;3.28;;;2.13;;
56045;SDS011;41913;51.030;3.706;2023-09-18T07:52:31;3.92;;;2.13;;
56045;SDS011;41913;51.030;3.706;2023-09-18T07:54:57;3.45;;;2.00;;
56045;SDS011;41913;51.030;3.706;2023-09-18T07:57:24;1.77;;;1.67;;
56045;SDS011;41913;51.030;3.706;2023-09-18T07:59:51;1.83;;;1.60;;
56045;SDS011;41913;51.030;3.706;2023-09-18T08:02:17;3.05;;;2.83;;
56045;SDS011;41913;51.030;3.706;2023-09-18T08:04:43;2.17;;;1.83;;
56045;SDS011;41913;51.030;3.706;2023-09-18T08:07:08;2.70;;;1.80;;
56045;SDS011;41913;51.030;3.706;2023-09-18T08:09:34;4.40;;;1.90;;
56045;SDS011;41913;51.030;3.706;2023-09-18T08:12:04;7.97;;;2.40;;
56045;SDS011;41913;51.030;3.706;2023-09-18T08:14:30;4.30;;;2.10;;
56045;SDS011;41913;51.030;3.706;2023-09-18T08:16:57;2.28;;;2.13;;
56045;SDS011;41913;51.030;3.706;2023-09-18T08:19:23;6.38;;;2.08;;
56045;SDS011;41913;51.030;3.706;2023-09-18T08:21:52;1.95;;;1.83;;
56045;SDS011;41913;51.030;3.706;2023-09-18T08:24:19;2.47;;;2.08;;
56045;SDS011;41913;51.030;3.706;2023-09-18T08:26:47;9.13;;;2.28;;
56045;SDS011;41913;51.030;3.706;2023-09-18T08:29:12;5.53;;;1.70;;
56045;SDS011;41913;51.030;3.706;2023-09-18T08:31:38;1.83;;;1.73;;
56045;SDS011;41913;51.030;3.706;2023-09-18T08:34:04;2.22;;;2.13;;
56045;SDS011;41913;51.030;3.706;2023-09-18T08:36:29;4.82;;;2.58;;
56045;SDS011;41913;51.030;3.706;2023-09-18T08:38:56;3.83;;;2.20;;
56045;SDS011;41913;51.030;3.706;2023-09-18T08:41:22;6.05;;;2.60;;
56045;SDS011;41913;51.030;3.706;2023-09-18T08:43:52;4.45;;;2.47;;
56045;SDS011;41913;51.030;3.706;2023-09-18T08:46:21;5.07;;;2.40;;
56045;SDS011;41913;51.030;3.706;2023-09-18T08:48:48;2.45;;;2.30;;
56045;SDS011;41913;51.030;3.706;2023-09-18T08:51:14;2.53;;;2.33;;
56045;SDS011;41913;51.030;3.706;2023-09-18T08:53:43;4.63;;;2.80;;
56045;SDS011;41913;51.030;3.706;2023-09-18T08:56:09;4.65;;;2.17;;
56045;SDS011;41913;51.030;3.706;2023-09-18T08:58:37;2.97;;;2.45;;
56045;SDS011;41913;51.030;3.706;2023-09-18T09:01:07;2.17;;;1.95;;
56045;SDS011;41913;51.030;3.706;2023-09-18T09:03:38;2.95;;;2.17;;
56045;SDS011;41913;51.030;3.706;2023-09-18T09:06:06;3.58;;;2.42;;
56045;SDS011;41913;51.030;3.706;2023-09-18T09:08:33;3.00;;;2.55;;
56045;SDS011;41913;51.030;3.706;2023-09-18T09:10:59;4.63;;;2.35;;
56045;SDS011;41913;51.030;3.706;2023-09-18T09:13:25;2.55;;;2.17;;
56045;SDS011;41913;51.030;3.706;2023-09-18T09:15:55;2.67;;;1.90;;
56045;SDS011;41913;51.030;3.706;2023-09-18T09:18:22;3.05;;;2.03;;
56045;SDS011;41913;51.030;3.706;2023-09-18T09:21:00;3.95;;;2.45;;
56045;SDS011;41913;51.030;3.706;2023-09-18T09:23:30;5.25;;;2.90;;
56045;SDS011;41913;51.030;3.706;2023-09-18T09:26:19;22.50;;;11.10;;
56045;SDS011;41913;51.030;3.706;2023-09-18T09:28:46;26.02;;;12.38;;
56045;SDS011;41913;51.030;3.706;2023-09-18T09:31:31;21.50;;;10.02;;
56045;SDS011;41913;51.030;3.706;2023-09-18T09:33:56;35.78;;;13.20;;
56045;SDS011;41913;51.030;3.706;2023-09-18T09:36:23;53.28;;;21.25;;
56045;SDS011;41913;51.030;3.706;2023-09-18T09:38:54;46.80;;;17.10;;
56045;SDS011;41913;51.030;3.706;2023-09-18T09:41:22;20.60;;;8.00;;
56045;SDS011;41913;51.030;3.706;2023-09-18T09:43:48;13.73;;;5.72;;
56045;SDS011;41913;51.030;3.706;2023-09-18T09:46:17;12.93;;;4.03;;
56045;SDS011;41913;51.030;3.706;2023-09-18T09:49:02;6.05;;;3.28;;
56045;SDS011;41913;51.030;3.706;2023-09-18T09:51:30;3.45;;;3.15;;
56045;SDS011;41913;51.030;3.706;2023-09-18T09:53:56;7.65;;;3.13;;
56045;SDS011;41913;51.030;3.706;2023-09-18T09:59:16;7.68;;;3.10;;
56045;SDS011;41913;51.030;3.706;2023-09-18T10:01:47;2.80;;;2.55;;
56045;SDS011;41913;51.030;3.706;2023-09-18T10:04:16;9.20;;;3.53;;
56045;SDS011;41913;51.030;3.706;2023-09-18T10:06:44;3.00;;;2.70;;
56045;SDS011;41913;51.030;3.706;2023-09-18T10:09:13;8.18;;;2.65;;
56045;SDS011;41913;51.030;3.706;2023-09-18T10:11:41;6.70;;;3.10;;
56045;SDS011;41913;51.030;3.706;2023-09-18T10:14:14;4.60;;;2.88;;
56045;SDS011;41913;51.030;3.706;2023-09-18T10:16:45;7.47;;;2.35;;
56045;SDS011;41913;51.030;3.706;2023-09-18T10:24:47;4.00;;;2.45;;
56045;SDS011;41913;51.030;3.706;2023-09-18T10:27:15;6.03;;;2.88;;
56045;SDS011;41913;51.030;3.706;2023-09-18T10:29:43;4.43;;;2.50;;
56045;SDS011;41913;51.030;3.706;2023-09-18T10:32:16;2.38;;;2.28;;
56045;SDS011;41913;51.030;3.706;2023-09-18T10:34:45;4.55;;;2.10;;
56045;SDS011;41913;51.030;3.706;2023-09-18T10:37:12;5.75;;;2.58;;
56045;SDS011;41913;51.030;3.706;2023-09-18T10:39:40;2.25;;;2.05;;
56045;SDS011;41913;51.030;3.706;2023-09-18T10:42:09;6.15;;;2.35;;
56045;SDS011;41913;51.030;3.706;2023-09-18T10:44:35;4.75;;;2.22;;
56045;SDS011;41913;51.030;3.706;2023-09-18T10:47:05;7.53;;;2.70;;
56045;SDS011;41913;51.030;3.706;2023-09-18T10:49:33;6.45;;;2.72;;
56045;SDS011;41913;51.030;3.706;2023-09-18T10:52:00;3.28;;;2.20;;
56045;SDS011;41913;51.030;3.706;2023-09-18T10:54:27;2.95;;;2.28;;
56045;SDS011;41913;51.030;3.706;2023-09-18T10:56:55;1.65;;;1.55;;
56045;SDS011;41913;51.030;3.706;2023-09-18T10:59:22;2.08;;;1.88;;
56045;SDS011;41913;51.030;3.706;2023-09-18T11:01:48;6.75;;;1.92;;
56045;SDS011;41913;51.030;3.706;2023-09-18T11:04:17;3.40;;;2.20;;
56045;SDS011;41913;51.030;3.706;2023-09-18T11:09:22;1.90;;;1.80;;
56045;SDS011;41913;51.030;3.706;2023-09-18T11:17:30;3.90;;;2.20;;
56045;SDS011;41913;51.030;3.706;2023-09-18T11:20:08;1.98;;;1.85;;
56045;SDS011;41913;51.030;3.706;2023-09-18T11:28:08;3.05;;;1.92;;
56045;SDS011;41913;51.030;3.706;2023-09-18T11:30:51;7.43;;;2.10;;
56045;SDS011;41913;51.030;3.706;2023-09-18T11:33:32;1.83;;;1.73;;
56045;SDS011;41913;51.030;3.706;2023-09-18T11:36:05;2.38;;;2.15;;
56045;SDS011;41913;51.030;3.706;2023-09-18T11:38:51;2.77;;;2.47;;
56045;SDS011;41913;51.030;3.706;2023-09-18T11:41:21;6.70;;;2.15;;
56045;SDS011;41913;51.030;3.706;2023-09-18T11:43:51;2.50;;;1.95;;
56045;SDS011;41913;51.030;3.706;2023-09-18T11:46:18;2.00;;;1.90;;
56045;SDS011;41913;51.030;3.706;2023-09-18T11:48:46;1.80;;;1.70;;
56045;SDS011;41913;51.030;3.706;2023-09-18T11:56:14;1.20;;;1.20;;
56045;SDS011;41913;51.030;3.706;2023-09-18T11:58:51;2.33;;;1.67;;
56045;SDS011;41913;51.030;3.706;2023-09-18T12:01:19;4.22;;;1.50;;
56045;SDS011;41913;51.030;3.706;2023-09-18T12:03:52;1.30;;;1.30;;
56045;SDS011;41913;51.030;3.706;2023-09-18T12:06:25;2.90;;;1.80;;
56045;SDS011;41913;51.030;3.706;2023-09-18T12:08:53;2.58;;;1.58;;
56045;SDS011;41913;51.030;3.706;2023-09-18T12:11:19;1.70;;;1.48;;
56045;SDS011;41913;51.030;3.706;2023-09-18T12:13:46;2.00;;;1.90;;
56045;SDS011;41913;51.030;3.706;2023-09-18T12:16:16;2.55;;;1.58;;
56045;SDS011;41913;51.030;3.706;2023-09-18T12:18:46;2.95;;;1.45;;
56045;SDS011;41913;51.030;3.706;2023-09-18T12:21:15;1.90;;;1.65;;
56045;SDS011;41913;51.030;3.706;2023-09-18T12:23:43;1.58;;;1.48;;
56045;SDS011;41913;51.030;3.706;2023-09-18T12:26:11;4.85;;;1.80;;
56045;SDS011;41913;51.030;3.706;2023-09-18T12:28:38;1.92;;;1.40;;
56045;SDS011;41913;51.030;3.706;2023-09-18T12:31:05;1.60;;;1.48;;
56045;SDS011;41913;51.030;3.706;2023-09-18T12:33:34;1.70;;;1.60;;
56045;SDS011;41913;51.030;3.706;2023-09-18T12:36:04;1.60;;;1.50;;
56045;SDS011;41913;51.030;3.706;2023-09-18T12:38:31;4.43;;;1.67;;
56045;SDS011;41913;51.030;3.706;2023-09-18T12:40:58;3.67;;;1.63;;
56045;SDS011;41913;51.030;3.706;2023-09-18T12:43:34;1.67;;;1.23;;
56045;SDS011;41913;51.030;3.706;2023-09-18T12:46:07;2.78;;;1.60;;
56045;SDS011;41913;51.030;3.706;2023-09-18T12:48:37;4.35;;;1.48;;
56045;SDS011;41913;51.030;3.706;2023-09-18T12:51:10;3.15;;;1.73;;
56045;SDS011;41913;51.030;3.706;2023-09-18T12:53:36;4.07;;;1.50;;
56045;SDS011;41913;51.030;3.706;2023-09-18T12:58:31;4.50;;;1.25;;
56045;SDS011;41913;51.030;3.706;2023-09-18T13:00:57;5.93;;;1.73;;
56045;SDS011;41913;51.030;3.706;2023-09-18T13:03:23;1.58;;;1.48;;
56045;SDS011;41913;51.030;3.706;2023-09-18T13:05:49;2.40;;;2.20;;
56045;SDS011;41913;51.030;3.706;2023-09-18T13:08:20;2.55;;;1.67;;
56045;SDS011;41913;51.030;3.706;2023-09-18T13:10:49;2.03;;;1.88;;
56045;SDS011;41913;51.030;3.706;2023-09-18T13:13:18;1.48;;;1.40;;
56045;SDS011;41913;51.030;3.706;2023-09-18T13:15:46;4.03;;;1.63;;
56045;SDS011;41913;51.030;3.706;2023-09-18T13:18:14;4.38;;;1.52;;
56045;SDS011;41913;51.030;3.706;2023-09-18T13:20:41;28.70;;;3.42;;
56045;SDS011;41913;51.030;3.706;2023-09-18T13:23:07;21.33;;;3.08;;
56045;SDS011;41913;51.030;3.706;2023-09-18T13:25:34;5.90;;;1.83;;
56045;SDS011;41913;51.030;3.706;2023-09-18T13:28:03;6.95;;;1.73;;
56045;SDS011;41913;51.030;3.706;2023-09-18T13:30:33;14.15;;;2.50;;
56045;SDS011;41913;51.030;3.706;2023-09-18T13:33:05;10.70;;;1.50;;
56045;SDS011;41913;51.030;3.706;2023-09-18T13:35:31;6.22;;;1.40;;
56045;SDS011;41913;51.030;3.706;2023-09-18T13:37:58;7.93;;;1.52;;
56045;SDS011;41913;51.030;3.706;2023-09-18T13:40:23;7.32;;;1.17;;
56045;SDS011;41913;51.030;3.706;2023-09-18T13:42:50;4.70;;;1.30;;
56045;SDS011;41913;51.030;3.706;2023-09-18T13:45:16;3.53;;;1.70;;
56045;SDS011;41913;51.030;3.706;2023-09-18T13:47:42;3.13;;;1.55;;
56045;SDS011;41913;51.030;3.706;2023-09-18T13:50:08;2.92;;;1.60;;
56045;SDS011;41913;51.030;3.706;2023-09-18T13:52:35;1.77;;;1.42;;
56045;SDS011;41913;51.030;3.706;2023-09-18T13:55:02;5.45;;;1.73;;
56045;SDS011;41913;51.030;3.706;2023-09-18T13:57:30;2.45;;;1.38;;
56045;SDS011;41913;51.030;3.706;2023-09-18T14:00:00;6.38;;;1.98;;
56045;SDS011;41913;51.030;3.706;2023-09-18T14:02:33;1.67;;;1.35;;
56045;SDS011;41913;51.030;3.706;2023-09-18T14:04:59;38.17;;;4.05;;
56045;SDS011;41913;51.030;3.706;2023-09-18T14:07:25;10.07;;;2.55;;
56045;SDS011;41913;51.030;3.706;2023-09-18T14:09:51;5.93;;;1.35;;
56045;SDS011;41913;51.030;3.706;2023-09-18T14:12:17;6.32;;;2.10;;
56045;SDS011;41913;51.030;3.706;2023-09-18T14:14:43;1.60;;;1.50;;
56045;SDS011;41913;51.030;3.706;2023-09-18T14:17:09;2.25;;;1.35;;
56045;SDS011;41913;51.030;3.706;2023-09-18T14:19:35;2.83;;;1.67;;
56045;SDS011;41913;51.030;3.706;2023-09-18T14:22:03;3.03;;;1.50;;
56045;SDS011;41913;51.030;3.706;2023-09-18T14:24:33;1.98;;;1.60;;
56045;SDS011;41913;51.030;3.706;2023-09-18T14:27:03;2.58;;;1.70;;
56045;SDS011;41913;51.030;3.706;2023-09-18T14:29:32;1.52;;;1.33;;
56045;SDS011;41913;51.030;3.706;2023-09-18T14:32:01;5.20;;;2.10;;
56045;SDS011;41913;51.030;3.706;2023-09-18T14:34:28;4.00;;;1.60;;
56045;SDS011;41913;51.030;3.706;2023-09-18T14:36:55;2.60;;;1.48;;
56045;SDS011;41913;51.030;3.706;2023-09-18T14:39:24;3.90;;;1.60;;
56045;SDS011;41913;51.030;3.706;2023-09-18T14:41:51;6.28;;;1.80;;
56045;SDS011;41913;51.030;3.706;2023-09-18T14:44:18;1.30;;;1.27;;
56045;SDS011;41913;51.030;3.706;2023-09-18T14:46:44;4.75;;;1.90;;
56045;SDS011;41913;51.030;3.706;2023-09-18T14:49:10;3.20;;;2.05;;
56045;SDS011;41913;51.030;3.706;2023-09-18T14:51:36;2.22;;;1.50;;
56045;SDS011;41913;51.030;3.706;2023-09-18T14:54:02;1.75;;;1.20;;
56045;SDS011;41913;51.030;3.706;2023-09-18T14:56:29;3.13;;;1.23;;
56045;SDS011;41913;51.030;3.706;2023-09-18T14:58:55;4.32;;;1.70;;
56045;SDS011;41913;51.030;3.706;2023-09-18T15:03:50;8.57;;;1.73;;
56045;SDS011;41913;51.030;3.706;2023-09-18T15:06:16;84.85;;;6.60;;
56045;SDS011;41913;51.030;3.706;2023-09-18T15:08:44;17.25;;;2.25;;
56045;SDS011;41913;51.030;3.706;2023-09-18T15:11:10;15.65;;;2.55;;
56045;SDS011;41913;51.030;3.706;2023-09-18T15:13:37;9.02;;;1.85;;
56045;SDS011;41913;51.030;3.706;2023-09-18T15:16:03;7.93;;;1.60;;
56045;SDS011;41913;51.030;3.706;2023-09-18T15:18:30;3.35;;;1.40;;
56045;SDS011;41913;51.030;3.706;2023-09-18T15:20:56;5.97;;;1.75;;